createdAt,value
2023-02-21T00:01:12.876Z,8.52
2023-02-21T00:02:33.430Z,7.63
2023-02-21T00:03:53.482Z,8.10
2023-02-21T00:06:33.169Z,7.10
2023-02-21T00:07:53.496Z,8.75
2023-02-21T00:09:13.871Z,8.63
2023-02-21T00:10:34.626Z,8.95
2023-02-21T00:11:59.155Z,8.15
2023-02-21T00:13:19.573Z,8.73
2023-02-21T00:14:39.479Z,8.23
2023-02-21T00:15:59.293Z,9.00
2023-02-21T00:17:18.935Z,8.80
2023-02-21T00:18:39.197Z,9.65
2023-02-21T00:19:59.502Z,8.32
2023-02-21T00:21:19.990Z,7.93
2023-02-21T00:22:39.846Z,9.40
2023-02-21T00:23:59.694Z,7.43
2023-02-21T00:25:19.667Z,8.60
2023-02-21T00:26:41.439Z,7.82
2023-02-21T00:28:01.244Z,8.13
2023-02-21T00:29:21.427Z,8.82
2023-02-21T00:30:41.457Z,8.18
2023-02-21T00:33:21.601Z,7.70
2023-02-21T00:34:41.479Z,8.05
2023-02-21T00:36:01.312Z,9.35
2023-02-21T00:37:20.987Z,8.00
2023-02-21T00:38:40.723Z,9.40
2023-02-21T00:40:00.528Z,9.80
2023-02-21T00:41:20.269Z,9.32
2023-02-21T00:42:40.087Z,9.35
2023-02-21T00:43:59.847Z,8.55
2023-02-21T00:45:19.617Z,9.13
2023-02-21T00:46:40.879Z,10.52
2023-02-21T00:48:00.739Z,10.20
2023-02-21T00:49:22.086Z,10.45
2023-02-21T00:50:41.946Z,10.07
2023-02-21T00:52:01.719Z,9.55
2023-02-21T00:53:22.176Z,9.32
2023-02-21T00:54:42.077Z,9.50
2023-02-21T00:56:01.802Z,10.82
2023-02-21T00:57:22.330Z,10.93
2023-02-21T00:58:42.075Z,9.52
2023-02-21T01:00:01.813Z,10.02
2023-02-21T01:01:21.709Z,10.15
2023-02-21T01:02:41.454Z,10.52
2023-02-21T01:04:01.855Z,10.75
2023-02-21T01:05:22.217Z,10.30
2023-02-21T01:06:42.098Z,10.07
2023-02-21T01:08:02.451Z,10.13
2023-02-21T01:09:22.725Z,10.32
2023-02-21T01:10:42.525Z,10.25
2023-02-21T01:12:02.193Z,10.77
2023-02-21T01:13:22.933Z,10.95
2023-02-21T01:14:42.828Z,9.38
2023-02-21T01:16:03.280Z,9.93
2023-02-21T01:17:23.474Z,9.80
2023-02-21T01:18:44.000Z,10.25
2023-02-21T01:20:03.817Z,11.60
2023-02-21T01:21:24.108Z,11.05
2023-02-21T01:22:43.870Z,9.70
2023-02-21T01:24:03.834Z,10.32
2023-02-21T01:25:24.663Z,9.65
2023-02-21T01:26:44.414Z,10.10
2023-02-21T01:28:04.328Z,9.90
2023-02-21T01:29:24.788Z,9.55
2023-02-21T01:30:44.606Z,10.90
2023-02-21T01:32:04.766Z,10.63
2023-02-21T01:33:24.465Z,8.88
2023-02-21T01:34:44.285Z,10.50
2023-02-21T01:36:04.064Z,10.32
2023-02-21T01:37:23.892Z,10.20
2023-02-21T01:38:43.792Z,10.05
2023-02-21T01:40:03.653Z,10.48
2023-02-21T01:41:24.058Z,10.07
2023-02-21T01:42:46.987Z,10.50
2023-02-21T01:44:24.150Z,11.25
2023-02-21T01:46:14.409Z,9.95
2023-02-21T01:47:34.793Z,10.63
2023-02-21T01:48:55.621Z,9.82
2023-02-21T01:50:16.922Z,9.65
2023-02-21T01:51:41.851Z,9.75
2023-02-21T01:53:02.705Z,9.52
2023-02-21T01:54:24.694Z,9.10
2023-02-21T01:55:45.057Z,9.30
2023-02-21T01:57:05.722Z,8.90
2023-02-21T01:58:26.102Z,9.27
2023-02-21T01:59:47.060Z,7.85
2023-02-21T02:01:07.439Z,9.18
2023-02-21T02:02:38.018Z,8.68
2023-02-21T02:03:59.821Z,8.60
2023-02-21T02:05:21.132Z,8.52
2023-02-21T02:06:41.400Z,9.55
2023-02-21T02:08:01.654Z,9.23
2023-02-21T02:09:39.929Z,8.95
2023-02-21T02:11:01.317Z,8.15
2023-02-21T02:12:41.604Z,8.75
2023-02-21T02:13:46.057Z,7.93
2023-02-21T02:14:47.451Z,7.93
2023-02-21T02:15:54.967Z,9.68
2023-02-21T02:17:16.533Z,9.02
2023-02-21T02:18:33.273Z,9.27
2023-02-21T02:19:53.672Z,8.15
2023-02-21T02:21:14.124Z,8.82
2023-02-21T02:22:30.333Z,7.97
2023-02-21T02:23:43.604Z,9.30
2023-02-21T02:25:16.252Z,8.30
2023-02-21T02:26:55.835Z,8.32
2023-02-21T02:28:15.899Z,8.00
2023-02-21T02:31:06.953Z,8.32
2023-02-21T02:32:41.699Z,8.48
2023-02-21T02:34:14.264Z,8.88
2023-02-21T02:35:24.655Z,7.53
2023-02-21T02:36:39.553Z,8.93
2023-02-21T02:38:04.957Z,9.30
2023-02-21T02:39:26.015Z,9.60
2023-02-21T02:40:36.396Z,7.90
2023-02-21T02:42:24.126Z,9.30
2023-02-21T02:43:28.437Z,8.45
2023-02-21T02:44:40.986Z,8.00
2023-02-21T02:45:45.147Z,10.18
2023-02-21T02:46:49.371Z,8.70
2023-02-21T02:47:57.245Z,8.75
2023-02-21T02:49:05.721Z,8.90
2023-02-21T02:50:09.418Z,6.85
2023-02-21T02:51:16.411Z,9.05
2023-02-21T02:52:18.400Z,9.32
2023-02-21T02:53:25.223Z,10.30
2023-02-21T02:54:26.615Z,9.05
2023-02-21T02:55:54.840Z,9.52
2023-02-21T02:56:56.349Z,9.20
2023-02-21T02:57:58.954Z,8.73
2023-02-21T02:59:07.897Z,8.00
2023-02-21T03:00:10.765Z,8.25
2023-02-21T03:01:26.818Z,8.85
2023-02-21T03:02:28.177Z,9.57
2023-02-21T03:03:38.480Z,9.45
2023-02-21T03:04:52.656Z,8.77
2023-02-21T03:06:00.795Z,9.80
2023-02-21T03:07:35.074Z,7.63
2023-02-21T03:08:40.547Z,6.90
2023-02-21T03:09:42.187Z,8.95
2023-02-21T03:10:58.412Z,8.27
2023-02-21T03:12:08.654Z,9.15
2023-02-21T03:13:21.583Z,7.82
2023-02-21T03:14:27.608Z,7.38
2023-02-21T03:15:36.142Z,7.82
2023-02-21T03:17:00.319Z,9.00
2023-02-21T03:18:14.037Z,8.60
2023-02-21T03:19:20.607Z,8.95
2023-02-21T03:20:23.074Z,8.07
2023-02-21T03:21:32.498Z,8.73
2023-02-21T03:22:34.833Z,8.35
2023-02-21T03:23:39.648Z,8.38
2023-02-21T03:24:44.489Z,8.93
2023-02-21T03:25:48.093Z,8.65
2023-02-21T03:26:53.757Z,8.20
2023-02-21T03:27:55.487Z,10.02
2023-02-21T03:28:56.997Z,9.07
2023-02-21T03:30:02.172Z,8.57
2023-02-21T03:31:08.129Z,9.00
2023-02-21T03:32:14.590Z,9.55
2023-02-21T03:33:16.030Z,8.00
2023-02-21T03:34:17.642Z,8.57
2023-02-21T03:35:20.542Z,7.90
2023-02-21T03:36:23.095Z,9.02
2023-02-21T03:37:39.696Z,8.52
2023-02-21T03:38:41.210Z,8.77
2023-02-21T03:39:42.628Z,7.65
2023-02-21T03:40:44.201Z,8.70
2023-02-21T03:41:45.700Z,8.77
2023-02-21T03:42:47.102Z,9.20
2023-02-21T03:43:48.599Z,7.70
2023-02-21T03:44:50.012Z,8.68
2023-02-21T03:45:51.535Z,9.45
2023-02-21T03:46:53.004Z,9.15
2023-02-21T03:47:54.443Z,8.82
2023-02-21T03:48:55.861Z,8.75
2023-02-21T03:49:57.284Z,8.85
2023-02-21T03:50:59.217Z,9.00
2023-02-21T03:52:00.691Z,9.18
2023-02-21T03:53:02.417Z,10.23
2023-02-21T03:54:03.921Z,10.30
2023-02-21T03:55:06.728Z,9.95
2023-02-21T03:56:08.233Z,9.85
2023-02-21T03:57:09.689Z,9.43
2023-02-21T03:58:11.145Z,9.48
2023-02-21T03:59:12.575Z,9.57
2023-02-21T04:00:14.919Z,9.40
2023-02-21T04:01:17.069Z,9.40
2023-02-21T04:02:19.212Z,9.10
2023-02-21T04:03:20.679Z,9.15
2023-02-21T04:04:22.230Z,9.43
2023-02-21T04:05:23.667Z,9.63
2023-02-21T04:06:25.443Z,9.90
2023-02-21T04:07:27.288Z,10.50
2023-02-21T04:08:28.669Z,9.90
2023-02-21T04:09:30.132Z,10.02
2023-02-21T04:10:35.744Z,8.10
2023-02-21T04:11:43.602Z,8.90
2023-02-21T04:12:45.012Z,11.50
2023-02-21T04:13:46.393Z,9.85
2023-02-21T04:14:47.852Z,10.77
2023-02-21T04:15:49.255Z,9.18
2023-02-21T04:16:51.552Z,9.55
2023-02-21T04:17:52.990Z,9.63
2023-02-21T04:18:54.450Z,9.32
2023-02-21T04:19:55.865Z,10.32
2023-02-21T04:20:57.259Z,10.10
2023-02-21T04:21:58.719Z,9.57
2023-02-21T04:23:03.499Z,9.25
2023-02-21T04:24:05.442Z,9.60
2023-02-21T04:25:07.612Z,11.32
2023-02-21T04:26:09.047Z,8.40
2023-02-21T04:27:10.549Z,9.45
2023-02-21T04:28:12.187Z,9.23
2023-02-21T04:29:13.745Z,8.50
2023-02-21T04:30:15.253Z,9.93
2023-02-21T04:31:18.298Z,9.68
2023-02-21T04:32:19.981Z,9.75
2023-02-21T04:33:21.475Z,9.85
2023-02-21T04:34:23.166Z,10.23
2023-02-21T04:35:24.628Z,10.02
2023-02-21T04:36:26.812Z,9.43
2023-02-21T04:37:28.268Z,9.73
2023-02-21T04:38:29.694Z,9.88
2023-02-21T04:39:31.114Z,9.65
2023-02-21T04:40:32.541Z,9.15
2023-02-21T04:41:34.293Z,9.40
2023-02-21T04:42:35.762Z,10.18
2023-02-21T04:43:37.205Z,9.00
2023-02-21T04:44:40.134Z,10.18
2023-02-21T04:45:41.647Z,10.35
2023-02-21T04:46:43.103Z,9.63
2023-02-21T04:47:44.542Z,10.20
2023-02-21T04:48:48.530Z,9.88
2023-02-21T04:49:52.374Z,9.18
2023-02-21T04:50:55.872Z,9.95
2023-02-21T04:51:58.676Z,9.77
2023-02-21T04:53:00.103Z,10.65
2023-02-21T04:54:01.460Z,10.43
2023-02-21T04:55:03.001Z,11.48
2023-02-21T04:56:04.845Z,10.43
2023-02-21T04:58:07.755Z,10.00
2023-02-21T04:59:09.143Z,10.95
2023-02-21T05:00:11.469Z,11.07
2023-02-21T05:01:14.914Z,10.25
2023-02-21T05:02:16.598Z,10.48
2023-02-21T05:03:18.270Z,10.55
2023-02-21T05:04:19.685Z,11.63
2023-02-21T05:05:21.135Z,10.07
2023-02-21T05:06:24.884Z,11.18
2023-02-21T05:07:26.337Z,10.18
2023-02-21T05:08:28.816Z,11.50
2023-02-21T05:09:30.648Z,10.80
2023-02-21T05:10:44.874Z,11.00
2023-02-21T05:11:46.992Z,11.20
2023-02-21T05:12:48.485Z,12.00
2023-02-21T05:13:50.522Z,12.68
2023-02-21T05:15:53.299Z,12.18
2023-02-21T05:16:54.845Z,11.20
2023-02-21T05:17:56.295Z,12.15
2023-02-21T05:18:58.175Z,11.98
2023-02-21T05:19:59.900Z,11.18
2023-02-21T05:21:03.208Z,12.63
2023-02-21T05:22:07.480Z,11.13
2023-02-21T05:23:13.938Z,12.15
2023-02-21T05:24:15.616Z,12.57
2023-02-21T05:25:19.277Z,11.80
2023-02-21T05:26:20.690Z,12.27
2023-02-21T05:27:22.755Z,11.93
2023-02-21T05:29:26.252Z,10.90
2023-02-21T05:30:27.729Z,12.40
2023-02-21T05:31:29.847Z,11.88
2023-02-21T05:33:32.817Z,11.35
2023-02-21T05:34:34.237Z,11.15
2023-02-21T05:35:35.652Z,11.90
2023-02-21T05:36:37.450Z,10.63
2023-02-21T05:37:38.974Z,11.25
2023-02-21T05:38:51.459Z,11.95
2023-02-21T05:39:52.873Z,12.40
2023-02-21T05:40:54.442Z,11.70
2023-02-21T05:41:55.846Z,12.60
2023-02-21T05:42:57.325Z,11.60
2023-02-21T05:43:58.772Z,12.75
2023-02-21T05:45:00.264Z,12.48
2023-02-21T05:46:01.709Z,11.07
2023-02-21T05:47:03.739Z,12.82
2023-02-21T05:49:07.454Z,12.18
2023-02-21T05:51:10.291Z,10.23
2023-02-21T05:52:13.308Z,11.35
2023-02-21T05:53:14.755Z,11.43
2023-02-21T05:54:19.499Z,10.80
2023-02-21T05:55:20.907Z,13.25
2023-02-21T05:56:22.486Z,11.13
2023-02-21T05:57:24.026Z,10.75
2023-02-21T05:58:25.486Z,11.77
2023-02-21T05:59:26.982Z,13.07
2023-02-21T06:00:30.031Z,12.30
2023-02-21T06:01:31.510Z,11.10
2023-02-21T06:02:32.945Z,10.95
2023-02-21T06:03:34.748Z,12.18
2023-02-21T06:04:36.191Z,11.73
2023-02-21T06:05:37.636Z,12.52
2023-02-21T06:06:39.135Z,13.70
2023-02-21T06:07:40.534Z,13.63
2023-02-21T06:08:44.919Z,11.07
2023-02-21T06:09:46.404Z,12.63
2023-02-21T06:10:48.664Z,12.00
2023-02-21T06:11:50.128Z,11.93
2023-02-21T06:12:51.813Z,12.60
2023-02-21T06:13:54.487Z,13.43
2023-02-21T06:14:55.972Z,14.32
2023-02-21T06:15:57.409Z,12.50
2023-02-21T06:17:00.510Z,13.70
2023-02-21T06:18:01.934Z,14.75
2023-02-21T06:19:04.895Z,13.02
2023-02-21T06:20:07.367Z,11.63
2023-02-21T06:21:08.771Z,12.77
2023-02-21T06:22:10.224Z,11.40
2023-02-21T06:23:11.631Z,13.10
2023-02-21T06:24:13.429Z,11.10
2023-02-21T06:25:15.694Z,11.63
2023-02-21T06:26:20.660Z,11.88
2023-02-21T06:27:22.107Z,12.45
2023-02-21T06:28:28.475Z,12.95
2023-02-21T06:29:30.069Z,11.75
2023-02-21T06:30:31.501Z,14.00
2023-02-21T06:31:33.354Z,12.85
2023-02-21T06:32:34.856Z,12.10
2023-02-21T06:33:36.463Z,11.43
2023-02-21T06:34:38.054Z,11.70
2023-02-21T06:35:39.501Z,12.45
2023-02-21T06:36:40.935Z,11.55
2023-02-21T06:37:42.753Z,12.68
2023-02-21T06:38:46.647Z,13.15
2023-02-21T06:39:48.146Z,12.40
2023-02-21T06:40:49.561Z,13.05
2023-02-21T06:41:51.303Z,11.73
2023-02-21T06:42:52.753Z,10.68
2023-02-21T06:43:55.687Z,11.23
2023-02-21T06:44:57.430Z,11.80
2023-02-21T06:45:58.882Z,11.80
2023-02-21T06:47:00.470Z,11.95
2023-02-21T06:48:02.118Z,12.45
2023-02-21T06:49:05.130Z,12.98
2023-02-21T06:50:09.203Z,12.45
2023-02-21T06:51:11.506Z,12.70
2023-02-21T06:52:13.270Z,13.40
2023-02-21T06:53:15.176Z,12.20
2023-02-21T06:54:17.123Z,11.93
2023-02-21T06:56:27.200Z,11.10
2023-02-21T06:57:28.761Z,11.23
2023-02-21T06:58:30.167Z,10.77
2023-02-21T06:59:32.208Z,11.65
2023-02-21T07:01:35.184Z,12.32
2023-02-21T07:02:38.684Z,11.70
2023-02-21T07:03:44.303Z,12.45
2023-02-21T07:04:47.043Z,12.48
2023-02-21T07:05:48.467Z,12.88
2023-02-21T07:06:50.439Z,10.48
2023-02-21T07:07:52.009Z,12.07
2023-02-21T07:08:53.455Z,13.35
2023-02-21T07:09:54.879Z,11.25
2023-02-21T07:10:56.854Z,12.23
2023-02-21T07:12:59.745Z,10.45
2023-02-21T07:14:01.565Z,13.27
2023-02-21T07:15:03.726Z,12.40
2023-02-21T07:16:05.673Z,12.98
2023-02-21T07:17:07.124Z,13.10
2023-02-21T07:18:08.588Z,12.20
2023-02-21T07:19:15.686Z,13.85
2023-02-21T07:20:17.359Z,11.38
2023-02-21T07:21:20.674Z,12.95
2023-02-21T07:22:26.188Z,12.32
2023-02-21T07:23:27.874Z,11.88
2023-02-21T07:24:29.341Z,10.95
2023-02-21T07:25:31.345Z,12.10
2023-02-21T07:27:34.175Z,11.38
2023-02-21T07:28:35.614Z,11.40
2023-02-21T07:29:37.007Z,11.60
2023-02-21T07:30:38.595Z,10.80
2023-02-21T07:31:40.146Z,10.82
2023-02-21T07:32:41.657Z,12.20
2023-02-21T07:33:43.168Z,11.30
2023-02-21T07:34:44.932Z,11.73
2023-02-21T07:35:46.419Z,12.05
2023-02-21T07:36:47.855Z,11.32
2023-02-21T07:37:49.318Z,11.95
2023-02-21T07:38:50.801Z,10.63
2023-02-21T07:39:52.248Z,13.25
2023-02-21T07:40:58.243Z,13.35
2023-02-21T07:41:59.708Z,10.35
2023-02-21T07:43:02.282Z,10.90
2023-02-21T07:44:03.784Z,10.70
2023-02-21T07:45:05.437Z,11.45
2023-02-21T07:46:11.757Z,10.77
2023-02-21T07:47:13.976Z,10.10
2023-02-21T07:48:15.524Z,9.80
2023-02-21T07:49:17.082Z,9.60
2023-02-21T07:50:18.778Z,9.40
2023-02-21T07:51:20.264Z,8.30
2023-02-21T07:52:23.012Z,9.43
2023-02-21T07:53:24.422Z,8.77
2023-02-21T07:54:25.832Z,8.35
2023-02-21T07:55:27.228Z,8.23
2023-02-21T07:56:28.816Z,8.75
2023-02-21T07:57:30.365Z,8.57
2023-02-21T07:58:32.466Z,8.77
2023-02-21T07:59:33.859Z,8.75
2023-02-21T08:00:35.985Z,9.23
2023-02-21T08:01:38.280Z,7.82
2023-02-21T08:02:40.261Z,7.72
2023-02-21T08:03:41.781Z,7.78
2023-02-21T08:04:43.271Z,8.38
2023-02-21T08:05:46.046Z,7.57
2023-02-21T08:06:49.245Z,7.50
2023-02-21T08:07:50.719Z,8.40
2023-02-21T08:08:52.139Z,6.40
2023-02-21T08:09:53.535Z,7.78
2023-02-21T08:10:54.969Z,6.90
2023-02-21T08:11:56.473Z,5.78
2023-02-21T08:12:57.888Z,6.80
2023-02-21T08:13:59.380Z,4.57
2023-02-21T08:15:00.804Z,4.90
2023-02-21T08:16:02.244Z,4.72
2023-02-21T08:17:03.698Z,4.80
2023-02-21T08:18:05.298Z,4.60
2023-02-21T08:19:07.968Z,5.40
2023-02-21T08:20:09.581Z,5.18
2023-02-21T08:21:11.215Z,4.38
2023-02-21T08:22:12.675Z,4.03
2023-02-21T08:23:14.129Z,3.60
2023-02-21T08:24:16.283Z,3.50
2023-02-21T08:25:17.963Z,4.35
2023-02-21T08:26:19.441Z,3.60
2023-02-21T08:27:20.836Z,3.10
2023-02-21T08:28:22.280Z,2.67
2023-02-21T08:29:23.706Z,2.50
2023-02-21T08:30:25.360Z,2.05
2023-02-21T08:31:27.038Z,1.52
2023-02-21T08:32:28.636Z,1.52
2023-02-21T08:33:31.573Z,1.70
2023-02-21T08:34:33.344Z,1.48
2023-02-21T08:35:34.866Z,1.60
2023-02-21T08:36:41.757Z,1.83
2023-02-21T08:37:47.809Z,2.10
2023-02-21T08:38:49.247Z,1.98
2023-02-21T08:39:52.361Z,1.63
2023-02-21T08:40:55.921Z,1.70
2023-02-21T08:41:58.655Z,1.80
2023-02-21T08:43:00.916Z,1.73
2023-02-21T08:44:02.432Z,1.67
2023-02-21T08:45:04.089Z,1.85
2023-02-21T08:46:05.598Z,1.83
2023-02-21T08:47:07.018Z,1.80
2023-02-21T08:48:08.606Z,1.63
2023-02-21T08:49:10.728Z,2.05
2023-02-21T08:50:12.942Z,2.58
2023-02-21T08:52:18.486Z,2.20
2023-02-21T08:53:20.202Z,2.20
2023-02-21T08:54:21.629Z,2.03
2023-02-21T08:55:23.254Z,2.28
2023-02-21T08:56:26.927Z,3.22
2023-02-21T08:57:28.399Z,2.40
2023-02-21T08:58:29.862Z,1.98
2023-02-21T08:59:33.558Z,2.03
2023-02-21T09:00:35.152Z,2.30
2023-02-21T09:01:36.838Z,2.85
2023-02-21T09:02:41.683Z,2.13
2023-02-21T09:03:43.271Z,2.22
2023-02-21T09:04:45.388Z,3.00
2023-02-21T09:05:46.916Z,3.13
2023-02-21T09:06:51.169Z,3.10
2023-02-21T09:07:59.104Z,3.97
2023-02-21T09:10:02.292Z,2.85
2023-02-21T09:11:03.796Z,2.20
2023-02-21T09:12:08.363Z,2.28
2023-02-21T09:13:09.935Z,2.38
2023-02-21T09:14:11.350Z,2.05
2023-02-21T09:15:15.418Z,2.67
2023-02-21T09:16:16.847Z,2.00
2023-02-21T09:17:18.335Z,2.03
2023-02-21T09:18:19.778Z,1.85
2023-02-21T09:19:21.880Z,2.03
2023-02-21T09:20:25.926Z,2.25
2023-02-21T09:21:28.476Z,1.90
2023-02-21T09:22:31.447Z,1.60
2023-02-21T09:23:33.029Z,2.33
2023-02-21T09:24:34.601Z,1.77
2023-02-21T09:25:36.075Z,2.78
2023-02-21T09:26:37.548Z,1.50
2023-02-21T09:27:40.228Z,1.55
2023-02-21T09:28:43.707Z,1.55
2023-02-21T09:29:46.937Z,1.80
2023-02-21T09:30:49.288Z,2.00
2023-02-21T09:31:51.000Z,1.55
2023-02-21T09:32:52.583Z,1.65
2023-02-21T09:33:54.063Z,1.92
2023-02-21T09:34:55.512Z,1.83
2023-02-21T09:35:56.918Z,1.90
2023-02-21T09:36:59.626Z,1.70
2023-02-21T09:38:02.014Z,1.38
2023-02-21T09:39:06.600Z,1.70
2023-02-21T09:40:40.545Z,2.45
2023-02-21T09:41:43.386Z,1.98
2023-02-21T09:42:45.464Z,2.10
2023-02-21T09:43:54.070Z,2.33
2023-02-21T09:44:55.613Z,1.80
2023-02-21T09:46:00.750Z,1.55
2023-02-21T09:47:07.531Z,1.50
2023-02-21T09:48:16.759Z,1.85
2023-02-21T09:49:28.585Z,2.15
2023-02-21T09:50:39.815Z,1.98
2023-02-21T09:51:43.813Z,1.70
2023-02-21T09:52:45.849Z,2.05
2023-02-21T09:53:48.898Z,2.88
2023-02-21T09:54:57.058Z,1.77
2023-02-21T09:56:12.892Z,2.17
2023-02-21T09:57:15.763Z,1.77
2023-02-21T09:58:20.061Z,1.90
2023-02-21T09:59:21.513Z,1.60
2023-02-21T10:00:29.175Z,1.80
2023-02-21T10:02:07.535Z,1.85
2023-02-21T10:03:45.565Z,1.60
2023-02-21T10:04:49.708Z,1.75
2023-02-21T10:06:05.492Z,1.40
2023-02-21T10:07:26.702Z,1.40
2023-02-21T10:08:43.259Z,1.50
2023-02-21T10:10:12.421Z,1.13
2023-02-21T10:11:39.438Z,1.17
2023-02-21T10:12:51.713Z,1.30
2023-02-21T10:14:13.103Z,1.10
2023-02-21T10:15:41.092Z,1.20
2023-02-21T10:16:54.897Z,1.80
2023-02-21T10:18:07.720Z,1.05
2023-02-21T10:19:18.583Z,1.50
2023-02-21T10:20:32.720Z,1.23
2023-02-21T10:21:43.052Z,1.25
2023-02-21T10:22:48.129Z,1.30
2023-02-21T10:23:51.991Z,1.30
2023-02-21T10:24:54.022Z,1.10
2023-02-21T10:27:07.259Z,0.95
2023-02-21T10:28:18.173Z,0.90
2023-02-21T10:29:34.851Z,1.00
2023-02-21T10:30:38.171Z,0.90
2023-02-21T10:31:42.137Z,0.90
2023-02-21T10:32:43.668Z,0.80
2023-02-21T10:33:45.252Z,1.00
2023-02-21T10:34:48.398Z,1.10
2023-02-21T10:35:49.888Z,1.42
2023-02-21T10:36:51.915Z,1.30
2023-02-21T10:37:59.584Z,1.10
2023-02-21T10:39:18.389Z,0.93
2023-02-21T10:40:41.871Z,0.90
2023-02-21T10:41:43.425Z,1.20
2023-02-21T10:42:54.348Z,0.88
2023-02-21T10:44:03.310Z,0.80
2023-02-21T10:45:07.188Z,0.90
2023-02-21T10:46:42.717Z,0.80
2023-02-21T10:47:59.075Z,0.80
2023-02-21T10:49:28.684Z,0.90
2023-02-21T10:50:48.815Z,0.82
2023-02-21T10:52:13.416Z,0.82
2023-02-21T10:53:35.729Z,0.70
2023-02-21T10:54:37.601Z,0.73
2023-02-21T10:55:39.003Z,0.80
2023-02-21T10:56:41.813Z,0.70
2023-02-21T10:57:45.270Z,0.80
2023-02-21T10:59:06.154Z,0.77
2023-02-21T11:00:11.482Z,1.50
2023-02-21T11:01:15.430Z,0.63
2023-02-21T11:02:44.643Z,0.90
2023-02-21T11:03:51.472Z,0.90
2023-02-21T11:04:55.001Z,0.73
2023-02-21T11:05:58.103Z,0.70
2023-02-21T11:07:08.881Z,0.75
2023-02-21T11:08:11.711Z,0.70
2023-02-21T11:09:39.298Z,0.70
2023-02-21T11:10:44.197Z,1.13
2023-02-21T11:11:45.602Z,0.90
2023-02-21T11:13:02.410Z,1.30
2023-02-21T11:14:21.126Z,1.40
2023-02-21T11:15:22.959Z,1.23
2023-02-21T11:16:24.626Z,0.82
2023-02-21T11:17:32.371Z,1.17
2023-02-21T11:18:33.785Z,1.02
2023-02-21T11:19:53.893Z,0.80
2023-02-21T11:20:55.389Z,1.10
2023-02-21T11:21:57.528Z,1.02
2023-02-21T11:22:59.065Z,1.20
2023-02-21T11:24:04.138Z,1.02
2023-02-21T11:25:20.729Z,0.65
2023-02-21T11:26:22.180Z,0.80
2023-02-21T11:27:24.303Z,1.00
2023-02-21T11:28:26.458Z,1.00
2023-02-21T11:29:27.924Z,0.70
2023-02-21T11:30:32.144Z,0.90
2023-02-21T11:31:34.239Z,0.80
2023-02-21T11:32:39.666Z,0.90
2023-02-21T11:33:49.346Z,1.00
2023-02-21T11:34:51.152Z,1.00
2023-02-21T11:36:06.200Z,0.80
2023-02-21T11:37:07.675Z,0.88
2023-02-21T11:38:35.784Z,1.05
2023-02-21T11:39:37.244Z,0.80
2023-02-21T11:40:50.292Z,1.10
2023-02-21T11:41:57.347Z,0.80
2023-02-21T11:43:20.310Z,0.70
2023-02-21T11:44:35.470Z,0.75
2023-02-21T11:45:46.666Z,0.90
2023-02-21T11:46:50.656Z,1.60
2023-02-21T11:48:05.512Z,1.17
2023-02-21T11:49:28.682Z,1.05
2023-02-21T11:50:39.493Z,1.30
2023-02-21T11:51:51.194Z,1.00
2023-02-21T11:53:14.516Z,1.30
2023-02-21T11:54:16.174Z,0.93
2023-02-21T11:55:26.158Z,1.17
2023-02-21T11:56:44.978Z,1.10
2023-02-21T11:58:00.738Z,1.70
2023-02-21T11:59:23.653Z,1.23
2023-02-21T12:00:45.287Z,1.20
2023-02-21T12:02:23.356Z,1.00
2023-02-21T12:04:00.800Z,1.45
2023-02-21T12:05:30.256Z,0.77
2023-02-21T12:06:40.405Z,0.82
2023-02-21T12:07:47.851Z,0.70
2023-02-21T12:09:01.587Z,1.25
2023-02-21T12:10:35.343Z,0.80
2023-02-21T12:11:49.142Z,1.00
2023-02-21T12:13:24.207Z,0.85
2023-02-21T12:14:34.628Z,1.65
2023-02-21T12:15:42.167Z,1.00
2023-02-21T12:16:58.713Z,1.00
2023-02-21T12:18:21.457Z,0.90
2023-02-21T12:19:35.119Z,0.82
2023-02-21T12:21:16.330Z,1.00
2023-02-21T12:22:36.410Z,1.00
2023-02-21T12:25:13.266Z,1.38
2023-02-21T12:27:43.895Z,1.00
2023-02-21T12:30:26.946Z,1.05
2023-02-21T12:31:31.332Z,0.90
2023-02-21T12:32:58.474Z,1.10
2023-02-21T12:34:27.322Z,1.55
2023-02-21T12:35:50.003Z,1.10
2023-02-21T12:37:16.564Z,0.80
2023-02-21T12:38:30.554Z,0.82
2023-02-21T12:40:46.365Z,1.73
2023-02-21T12:43:09.379Z,1.15
2023-02-21T12:44:18.580Z,0.90
2023-02-21T12:45:37.324Z,1.48
2023-02-21T12:46:40.844Z,1.73
2023-02-21T12:47:55.713Z,1.85
2023-02-21T12:49:04.735Z,1.60
2023-02-21T12:50:12.192Z,1.20
2023-02-21T12:51:18.135Z,1.10
2023-02-21T12:52:44.684Z,1.40
2023-02-21T12:54:01.706Z,1.80
2023-02-21T12:55:24.901Z,1.20
2023-02-21T12:56:38.211Z,1.27
2023-02-21T12:57:49.993Z,1.10
2023-02-21T12:59:15.406Z,1.20
2023-02-21T13:00:22.903Z,1.40
2023-02-21T13:01:37.912Z,1.70
2023-02-21T13:02:42.375Z,1.33
2023-02-21T13:04:24.499Z,1.27
2023-02-21T13:05:30.752Z,1.23
2023-02-21T13:06:37.046Z,1.17
2023-02-21T13:07:41.692Z,1.40
2023-02-21T13:09:04.803Z,1.15
2023-02-21T13:10:20.202Z,1.13
2023-02-21T13:11:43.427Z,1.42
2023-02-21T13:13:09.848Z,1.45
2023-02-21T13:14:38.815Z,1.05
2023-02-21T13:15:42.422Z,1.55
2023-02-21T13:16:44.100Z,1.60
2023-02-21T13:17:54.915Z,1.00
2023-02-21T13:19:04.662Z,1.45
2023-02-21T13:20:20.184Z,1.50
2023-02-21T13:21:40.209Z,1.75
2023-02-21T13:23:38.105Z,1.73
2023-02-21T13:25:15.955Z,2.05
2023-02-21T13:26:55.106Z,1.30
2023-02-21T13:28:19.147Z,1.20
2023-02-21T13:29:33.675Z,1.25
2023-02-21T13:30:38.593Z,1.05
2023-02-21T13:31:43.158Z,1.30
2023-02-21T13:32:57.549Z,1.50
2023-02-21T13:34:01.819Z,1.13
2023-02-21T13:35:07.604Z,1.33
2023-02-21T13:36:28.881Z,1.17
2023-02-21T13:37:34.486Z,1.35
2023-02-21T13:38:37.252Z,1.27
2023-02-21T13:39:38.775Z,1.30
2023-02-21T13:40:51.016Z,1.20
2023-02-21T13:41:56.357Z,1.35
2023-02-21T13:43:05.260Z,1.48
2023-02-21T13:44:31.587Z,1.50
2023-02-21T13:45:33.541Z,1.13
2023-02-21T13:48:05.431Z,0.95
2023-02-21T13:49:39.738Z,1.40
2023-02-21T13:50:46.867Z,1.75
2023-02-21T13:51:49.861Z,1.20
2023-02-21T13:53:01.929Z,1.25
2023-02-21T13:54:11.536Z,1.75
2023-02-21T13:55:15.603Z,1.83
2023-02-21T13:56:18.266Z,1.80
2023-02-21T13:57:33.398Z,2.10
2023-02-21T13:58:40.353Z,1.20
2023-02-21T13:59:41.802Z,1.52
2023-02-21T14:00:43.265Z,1.55
2023-02-21T14:01:44.788Z,1.63
2023-02-21T14:03:09.461Z,1.85
2023-02-21T14:04:48.443Z,1.10
2023-02-21T14:05:52.817Z,1.63
2023-02-21T14:06:57.440Z,1.58
2023-02-21T14:08:00.753Z,1.90
2023-02-21T14:09:18.687Z,1.35
2023-02-21T14:10:30.432Z,1.10
2023-02-21T14:11:38.011Z,1.70
2023-02-21T14:12:43.941Z,1.10
2023-02-21T14:13:57.569Z,1.20
2023-02-21T14:15:07.731Z,1.10
2023-02-21T14:16:24.318Z,1.10
2023-02-21T14:17:28.969Z,1.70
2023-02-21T14:18:49.052Z,1.20
2023-02-21T14:19:52.467Z,1.30
2023-02-21T14:20:55.783Z,1.40
2023-02-21T14:22:05.105Z,1.17
2023-02-21T14:23:06.752Z,1.00
2023-02-21T14:24:10.886Z,1.30
2023-02-21T14:25:19.300Z,1.52
2023-02-21T14:26:53.198Z,1.73
2023-02-21T14:27:56.115Z,1.80
2023-02-21T14:28:57.472Z,1.83
2023-02-21T14:29:58.850Z,1.50
2023-02-21T14:31:03.193Z,1.38
2023-02-21T14:32:04.746Z,1.40
2023-02-21T14:33:25.477Z,1.35
2023-02-21T14:34:48.473Z,1.40
2023-02-21T14:35:59.254Z,2.42
2023-02-21T14:37:14.799Z,1.67
2023-02-21T14:38:29.108Z,1.50
2023-02-21T14:39:38.609Z,1.33
2023-02-21T14:40:58.828Z,1.55
2023-02-21T14:42:18.708Z,1.92
2023-02-21T14:43:38.996Z,1.70
2023-02-21T14:44:51.428Z,1.65
2023-02-21T14:46:20.266Z,1.70
2023-02-21T14:47:34.510Z,1.50
2023-02-21T14:48:47.922Z,1.55
2023-02-21T14:50:08.086Z,1.23
2023-02-21T14:51:47.221Z,2.20
2023-02-21T14:53:06.894Z,1.50
2023-02-21T14:54:27.302Z,1.40
2023-02-21T14:55:48.921Z,1.50
2023-02-21T14:57:27.797Z,1.70
2023-02-21T14:58:55.656Z,1.58
2023-02-21T15:00:16.232Z,1.52
2023-02-21T15:01:59.671Z,1.52
2023-02-21T15:03:12.931Z,1.50
2023-02-21T15:04:29.404Z,1.63
2023-02-21T15:05:49.374Z,1.58
2023-02-21T15:07:00.138Z,1.80
2023-02-21T15:08:10.251Z,1.38
2023-02-21T15:09:13.932Z,1.50
2023-02-21T15:10:18.049Z,2.38
2023-02-21T15:11:26.373Z,1.50
2023-02-21T15:12:28.122Z,1.50
2023-02-21T15:13:32.879Z,1.85
2023-02-21T15:14:47.581Z,1.48
2023-02-21T15:15:56.917Z,1.55
2023-02-21T15:17:01.372Z,2.20
2023-02-21T15:18:10.543Z,1.52
2023-02-21T15:19:29.199Z,1.40
2023-02-21T15:20:33.837Z,2.10
2023-02-21T15:21:35.273Z,1.80
2023-02-21T15:22:36.671Z,1.63
2023-02-21T15:23:42.600Z,1.50
2023-02-21T15:25:08.618Z,1.70
2023-02-21T15:26:23.190Z,1.80
2023-02-21T15:27:24.670Z,1.20
2023-02-21T15:28:29.322Z,1.40
2023-02-21T15:29:30.816Z,1.80
2023-02-21T15:30:34.163Z,1.48
2023-02-21T15:32:00.182Z,1.55
2023-02-21T15:33:21.197Z,1.70
2023-02-21T15:34:27.217Z,1.50
2023-02-21T15:35:34.524Z,1.95
2023-02-21T15:36:36.515Z,2.00
2023-02-21T15:38:45.736Z,1.45
2023-02-21T15:40:05.277Z,1.92